Terminal Aerodrome Forecast
Issued by NWS Twin Cities, MN

Home | Current Version | Previous Version | Text Only | Print | Product List | Glossary On
Versions: 1 2 3 4 5 6 7 8 9 10 11 12 13 14 15
262
FTUS43 KMPX 272338
TAFEAU
TAF
KEAU 272338Z 2800/2824 24006KT P6SM BKN100
     FM280700 23003KT P6SM VCSH BKN070 BKN100
     FM281400 24009KT P6SM SCT150
     FM281700 27014G22KT P6SM SCT050=

USA.gov is the U.S. government's official web portal to all federal, state and local government web resources and services.